KOLY/OLY METAR and TAF weather

Enter ICAO airport designator
Station Type Date Time Source
KOLY METAR 2020/09/20 10:30 UTC NOAA

KOLY 201030Z AUTO 05003KT 10SM CLR 07/07 A3034 RMK AO2 T00710065


Station Type Date Time Source
KOLY Decoded METAR 2020/09/20 10:30 UTC NOAA

Olney-Noble, Olney-Noble Airport, IL, United States (KOLY) 38-43-19N 088-10-35W
Sep 20, 2020 - 06:30 AM EDT / 2020.09.20 1030 UTC
Wind: from the NE (050 degrees) at 3 MPH (3 KT):0
Visibility: 10 mile(s):0
Sky conditions: clear
Temperature: 44.8 F (7.1 C)
Dew Point: 43.7 F (6.5 C)
Relative Humidity: 95%
Pressure (altimeter): 30.34 in. Hg (1027 hPa)
ob: KOLY 201030Z AUTO 05003KT 10SM CLR 07/07 A3034 RMK AO2 T00710065
cycle: 10

Station Type Date Time Source
KOLY TAF UTC NOAA

Error!

Example: see airport list